createdAt,value
2018-10-09T00:01:00.008Z,8.87
2018-10-09T00:02:52.913Z,8.92
2018-10-09T00:03:52.921Z,8.84
2018-10-09T00:05:45.815Z,8.89
2018-10-09T00:06:45.831Z,8.81
2018-10-09T00:08:38.741Z,8.89
2018-10-09T00:09:38.745Z,8.94
2018-10-09T00:11:31.639Z,8.80
2018-10-09T00:12:31.654Z,8.79
2018-10-09T00:14:24.559Z,8.81
2018-10-09T00:15:24.567Z,8.86
2018-10-09T00:17:17.468Z,8.77
2018-10-09T00:18:17.482Z,8.74
2018-10-09T00:20:10.388Z,8.63
2018-10-09T00:21:10.395Z,8.73
2018-10-09T00:23:03.315Z,8.65
2018-10-09T00:24:03.307Z,8.74
2018-10-09T00:25:56.253Z,8.68
2018-10-09T00:26:56.218Z,8.71
2018-10-09T00:28:49.122Z,8.66
2018-10-09T00:29:49.128Z,8.66
2018-10-09T00:31:42.028Z,8.53
2018-10-09T00:32:42.045Z,8.56
2018-10-09T00:34:34.953Z,8.66
2018-10-09T00:35:34.955Z,8.58
2018-10-09T00:37:27.852Z,8.59
2018-10-09T00:38:27.866Z,8.65
2018-10-09T00:40:20.775Z,8.68
2018-10-09T00:41:20.776Z,8.66
2018-10-09T00:43:13.680Z,8.73
2018-10-09T00:44:13.695Z,8.65
2018-10-09T00:46:06.607Z,8.73
2018-10-09T00:47:06.608Z,8.66
2018-10-09T00:48:59.515Z,8.68
2018-10-09T00:49:59.520Z,8.68
2018-10-09T00:51:52.417Z,8.68
2018-10-09T00:52:52.430Z,8.68
2018-10-09T00:54:45.338Z,8.66
2018-10-09T00:55:45.343Z,8.73
2018-10-09T00:57:38.247Z,8.76
2018-10-09T00:58:38.255Z,8.62
2018-10-09T01:00:31.169Z,8.63
2018-10-09T01:01:31.172Z,8.55
2018-10-09T01:03:24.070Z,8.58
2018-10-09T01:04:24.084Z,8.65
2018-10-09T01:06:16.993Z,8.55
2018-10-09T01:07:16.999Z,8.61
2018-10-09T01:09:09.962Z,8.55
2018-10-09T01:10:09.906Z,8.62
2018-10-09T01:12:02.806Z,8.56
2018-10-09T01:13:02.821Z,8.58
2018-10-09T01:14:55.724Z,8.52
2018-10-09T01:15:55.729Z,8.56
2018-10-09T01:17:48.625Z,8.63
2018-10-09T01:18:48.637Z,8.68
2018-10-09T01:20:41.551Z,8.52
2018-10-09T01:21:41.553Z,8.59
2018-10-09T01:23:34.450Z,8.63
2018-10-09T01:24:34.464Z,8.59
2018-10-09T01:26:27.379Z,8.48
2018-10-09T01:27:27.383Z,8.50
2018-10-09T01:29:20.289Z,8.48
2018-10-09T01:30:20.293Z,8.45
2018-10-09T01:32:13.191Z,8.47
2018-10-09T01:33:13.206Z,8.41
2018-10-09T01:35:06.114Z,8.40
2018-10-09T01:36:06.119Z,8.36
2018-10-09T01:37:59.015Z,8.40
2018-10-09T01:38:59.030Z,8.33
2018-10-09T01:40:51.935Z,8.33
2018-10-09T01:41:51.939Z,8.30
2018-10-09T01:43:44.835Z,8.38
2018-10-09T01:44:44.848Z,8.37
2018-10-09T01:46:37.751Z,8.23
2018-10-09T01:47:37.756Z,8.25
2018-10-09T01:49:30.665Z,8.22
2018-10-09T01:50:30.672Z,8.20
2018-10-09T01:52:23.566Z,8.25
2018-10-09T01:53:23.580Z,8.22
2018-10-09T01:55:16.493Z,8.18
2018-10-09T01:56:16.490Z,8.10
2018-10-09T01:58:09.385Z,8.15
2018-10-09T01:59:09.398Z,8.19
2018-10-09T02:01:02.303Z,8.07
2018-10-09T02:02:02.316Z,8.04
2018-10-09T02:03:55.203Z,8.05
2018-10-09T02:04:55.217Z,7.98
2018-10-09T02:06:48.130Z,7.98
2018-10-09T02:07:48.132Z,7.95
2018-10-09T02:09:41.044Z,7.93
2018-10-09T02:10:41.046Z,7.93
2018-10-09T02:12:33.944Z,7.87
2018-10-09T02:13:33.957Z,7.92
2018-10-09T02:15:26.865Z,7.87
2018-10-09T02:16:26.868Z,7.86
2018-10-09T02:18:19.764Z,7.85
2018-10-09T02:19:19.779Z,7.80
2018-10-09T02:21:12.686Z,7.80
2018-10-09T02:22:12.689Z,7.85
2018-10-09T02:24:05.589Z,7.85
2018-10-09T02:25:05.600Z,7.83
2018-10-09T02:26:58.503Z,7.95
2018-10-09T02:27:58.510Z,7.83
2018-10-09T02:29:51.643Z,7.85
2018-10-09T02:30:51.649Z,7.85
2018-10-09T02:32:44.545Z,7.93
2018-10-09T02:33:44.595Z,7.89
2018-10-09T02:35:37.462Z,7.95
2018-10-09T02:36:37.467Z,7.86
2018-10-09T02:38:30.618Z,7.82
2018-10-09T02:39:30.618Z,7.82
2018-10-09T02:41:23.525Z,7.71
2018-10-09T02:42:23.528Z,7.71
2018-10-09T02:44:16.424Z,7.86
2018-10-09T02:45:16.437Z,7.71
2018-10-09T02:47:09.345Z,7.72
2018-10-09T02:48:09.349Z,7.71
2018-10-09T02:50:02.259Z,7.63
2018-10-09T02:51:02.259Z,7.68
2018-10-09T02:52:55.158Z,7.64
2018-10-09T02:53:55.170Z,7.68
2018-10-09T02:55:48.075Z,7.61
2018-10-09T02:56:48.082Z,7.72
2018-10-09T02:58:40.979Z,7.71
2018-10-09T02:59:40.992Z,7.69
2018-10-09T03:01:33.899Z,7.72
2018-10-09T03:02:33.903Z,7.72
2018-10-09T03:04:26.804Z,7.60
2018-10-09T03:05:26.816Z,7.63
2018-10-09T03:07:19.724Z,7.64
2018-10-09T03:08:19.729Z,7.52
2018-10-09T03:10:12.620Z,7.55
2018-10-09T03:11:12.633Z,7.52
2018-10-09T03:13:05.544Z,7.49
2018-10-09T03:14:05.544Z,7.53
2018-10-09T03:15:58.455Z,7.67
2018-10-09T03:16:58.455Z,7.69
2018-10-09T03:18:51.353Z,7.67
2018-10-09T03:19:51.367Z,7.63
2018-10-09T03:21:44.270Z,7.64
2018-10-09T03:22:44.276Z,7.71
2018-10-09T03:24:37.171Z,7.60
2018-10-09T03:25:37.187Z,7.55
2018-10-09T03:27:30.092Z,7.46
2018-10-09T03:28:30.096Z,7.58
2018-10-09T03:30:22.991Z,7.50
2018-10-09T03:31:23.005Z,7.46
2018-10-09T03:33:15.912Z,7.45
2018-10-09T03:34:15.917Z,7.52
2018-10-09T03:36:08.984Z,7.48
2018-10-09T03:37:08.991Z,7.46
2018-10-09T03:39:01.884Z,7.46
2018-10-09T03:40:01.908Z,7.46
2018-10-09T03:41:54.802Z,7.45
2018-10-09T03:42:54.810Z,7.43
2018-10-09T03:44:47.706Z,7.45
2018-10-09T03:45:47.720Z,7.43
2018-10-09T03:47:40.624Z,7.45
2018-10-09T03:48:40.627Z,7.43
2018-10-09T03:50:33.528Z,7.42
2018-10-09T03:51:33.542Z,7.42
2018-10-09T03:53:26.446Z,7.43
2018-10-09T03:54:26.451Z,7.46
2018-10-09T03:56:19.355Z,7.53
2018-10-09T03:57:19.361Z,7.48
2018-10-09T03:59:12.256Z,7.49
2018-10-09T04:00:12.269Z,7.50
2018-10-09T04:02:05.190Z,7.52
2018-10-09T04:03:05.178Z,7.68
2018-10-09T04:04:58.076Z,7.63
2018-10-09T04:05:58.089Z,7.63
2018-10-09T04:07:50.994Z,7.60
2018-10-09T04:08:50.999Z,7.60
2018-10-09T04:10:43.899Z,7.64
2018-10-09T04:11:43.912Z,7.64
2018-10-09T04:13:36.816Z,7.63
2018-10-09T04:14:36.819Z,7.67
2018-10-09T04:16:29.727Z,7.69
2018-10-09T04:17:29.753Z,7.49
2018-10-09T04:19:22.667Z,7.63
2018-10-09T04:20:22.637Z,7.63
2018-10-09T04:22:15.542Z,7.61
2018-10-09T04:23:15.547Z,7.52
2018-10-09T04:25:08.478Z,7.52
2018-10-09T04:26:08.494Z,7.53
2018-10-09T04:28:01.396Z,7.64
2018-10-09T04:29:01.401Z,7.50
2018-10-09T04:30:54.298Z,7.61
2018-10-09T04:31:54.312Z,7.64
2018-10-09T04:33:47.231Z,7.50
2018-10-09T04:34:47.231Z,7.55
2018-10-09T04:36:40.137Z,7.52
2018-10-09T04:37:40.143Z,7.49
2018-10-09T04:39:33.044Z,7.45
2018-10-09T04:40:33.054Z,7.49
2018-10-09T04:42:25.959Z,7.46
2018-10-09T04:43:25.966Z,7.46
2018-10-09T04:45:18.968Z,7.40
2018-10-09T04:46:18.870Z,7.42
2018-10-09T04:48:11.775Z,7.48
2018-10-09T04:49:11.778Z,7.50
2018-10-09T04:51:04.680Z,7.48
2018-10-09T04:52:04.687Z,7.45
2018-10-09T04:53:57.600Z,7.43
2018-10-09T04:54:57.607Z,7.43
2018-10-09T04:56:50.511Z,7.46
2018-10-09T04:57:50.516Z,7.46
2018-10-09T04:59:43.414Z,7.45
2018-10-09T05:00:43.450Z,7.48
2018-10-09T05:02:36.331Z,7.50
2018-10-09T05:03:36.336Z,7.46
2018-10-09T05:05:29.232Z,7.45
2018-10-09T05:06:29.246Z,7.40
2018-10-09T05:08:22.151Z,7.37
2018-10-09T05:09:22.157Z,7.40
2018-10-09T05:11:15.051Z,7.37
2018-10-09T05:12:15.064Z,7.37
2018-10-09T05:14:07.972Z,7.37
2018-10-09T05:15:07.978Z,7.28
2018-10-09T05:17:00.896Z,7.30
2018-10-09T05:18:00.889Z,7.35
2018-10-09T05:19:53.990Z,7.34
2018-10-09T05:20:54.003Z,7.28
2018-10-09T05:22:46.909Z,7.27
2018-10-09T05:23:46.914Z,7.24
2018-10-09T05:25:39.809Z,7.28
2018-10-09T05:26:39.820Z,7.25
2018-10-09T05:28:32.728Z,7.32
2018-10-09T05:29:32.731Z,7.28
2018-10-09T05:31:25.738Z,7.32
2018-10-09T05:32:25.637Z,7.34
2018-10-09T05:34:18.547Z,7.24
2018-10-09T05:35:18.546Z,7.34
2018-10-09T05:37:11.443Z,7.34
2018-10-09T05:38:11.459Z,7.30
2018-10-09T05:40:04.367Z,7.35
2018-10-09T05:41:04.369Z,7.30
2018-10-09T05:42:57.275Z,7.35
2018-10-09T05:43:57.279Z,7.30
2018-10-09T05:45:50.181Z,7.32
2018-10-09T05:46:50.189Z,7.32
2018-10-09T05:48:43.096Z,7.27
2018-10-09T05:49:43.096Z,7.43
2018-10-09T05:51:35.991Z,7.32
2018-10-09T05:52:36.067Z,7.31
2018-10-09T05:54:28.918Z,7.35
2018-10-09T05:55:28.921Z,7.39
2018-10-09T05:57:21.814Z,7.43
2018-10-09T05:58:21.829Z,7.40
2018-10-09T06:00:14.735Z,7.45
2018-10-09T06:01:14.738Z,7.42
2018-10-09T06:03:07.635Z,7.42
2018-10-09T06:04:07.647Z,7.48
2018-10-09T06:06:00.556Z,7.48
2018-10-09T06:07:00.556Z,7.53
2018-10-09T06:08:53.474Z,7.67
2018-10-09T06:09:53.466Z,7.52
2018-10-09T06:11:46.361Z,7.63
2018-10-09T06:12:46.376Z,7.68
2018-10-09T06:14:39.282Z,7.72
2018-10-09T06:15:39.345Z,7.79
2018-10-09T06:17:32.182Z,7.83
2018-10-09T06:18:32.201Z,7.85
2018-10-09T06:20:25.103Z,7.85
2018-10-09T06:21:25.109Z,7.92
2018-10-09T06:23:18.007Z,7.97
2018-10-09T06:24:18.016Z,8.10
2018-10-09T06:26:10.923Z,8.10
2018-10-09T06:27:10.928Z,8.18
2018-10-09T06:29:03.823Z,8.20
2018-10-09T06:30:03.837Z,8.26
2018-10-09T06:31:56.744Z,8.23
2018-10-09T06:32:56.747Z,8.36
2018-10-09T06:34:49.656Z,8.44
2018-10-09T06:35:49.661Z,8.45
2018-10-09T06:37:42.557Z,8.50
2018-10-09T06:38:42.620Z,8.50
2018-10-09T06:40:35.528Z,8.52
2018-10-09T06:41:35.486Z,8.53
2018-10-09T06:43:28.380Z,8.66
2018-10-09T06:44:28.395Z,8.71
2018-10-09T06:46:21.303Z,8.70
2018-10-09T06:47:21.317Z,8.68
2018-10-09T06:49:14.204Z,8.92
2018-10-09T06:50:14.220Z,8.91
2018-10-09T06:52:07.126Z,9.05
2018-10-09T06:53:07.132Z,9.11
2018-10-09T06:55:00.040Z,9.18
2018-10-09T06:56:00.051Z,9.21
2018-10-09T06:57:52.943Z,9.36
2018-10-09T06:58:52.956Z,9.39
2018-10-09T07:00:45.866Z,9.46
2018-10-09T07:01:45.875Z,9.47
2018-10-09T07:03:38.771Z,9.57
2018-10-09T07:04:38.786Z,9.54
2018-10-09T07:06:31.703Z,9.66
2018-10-09T07:07:31.700Z,9.74
2018-10-09T07:09:24.669Z,9.64
2018-10-09T07:10:24.617Z,9.61
2018-10-09T07:12:17.524Z,9.66
2018-10-09T07:13:17.528Z,9.51
2018-10-09T07:15:10.438Z,9.68
2018-10-09T07:16:10.443Z,9.84
2018-10-09T07:18:03.342Z,9.84
2018-10-09T07:19:03.358Z,9.90
2018-10-09T07:20:56.264Z,9.86
2018-10-09T07:21:56.270Z,9.96
2018-10-09T07:23:49.167Z,10.07
2018-10-09T07:24:49.185Z,10.14
2018-10-09T07:26:42.093Z,10.23
2018-10-09T07:27:42.138Z,10.23
2018-10-09T07:29:34.998Z,10.18
2018-10-09T07:30:35.011Z,10.08
2018-10-09T07:32:27.919Z,10.05
2018-10-09T07:33:27.925Z,10.08
2018-10-09T07:35:20.833Z,10.18
2018-10-09T07:36:20.839Z,10.14
2018-10-09T07:38:13.736Z,10.18
2018-10-09T07:39:13.752Z,10.11
2018-10-09T07:41:06.661Z,10.15
2018-10-09T07:42:06.666Z,10.20
2018-10-09T07:43:59.599Z,10.23
2018-10-09T07:44:59.644Z,10.30
2018-10-09T07:46:52.494Z,10.53
2018-10-09T07:47:52.503Z,10.59
2018-10-09T07:49:45.405Z,10.74
2018-10-09T07:50:45.418Z,10.86
2018-10-09T07:52:38.371Z,10.96
2018-10-09T07:53:38.337Z,11.06
2018-10-09T07:55:31.252Z,11.22
2018-10-09T07:56:31.253Z,11.28
2018-10-09T07:58:24.153Z,11.43
2018-10-09T07:59:24.172Z,11.47
2018-10-09T08:01:17.113Z,11.57
2018-10-09T08:02:17.113Z,11.42
2018-10-09T08:04:10.013Z,11.47
2018-10-09T08:05:10.033Z,11.44
2018-10-09T08:07:02.938Z,11.61
2018-10-09T08:08:02.945Z,11.58
2018-10-09T08:09:56.350Z,11.76
2018-10-09T08:10:56.450Z,11.73
2018-10-09T08:12:49.274Z,12.01
2018-10-09T08:13:49.283Z,12.09
2018-10-09T08:15:42.183Z,12.19
2018-10-09T08:16:42.199Z,12.14
2018-10-09T08:18:35.108Z,12.28
2018-10-09T08:19:35.117Z,12.34
2018-10-09T08:21:28.031Z,12.45
2018-10-09T08:22:28.120Z,12.53
2018-10-09T08:24:20.939Z,12.62
2018-10-09T08:25:20.953Z,12.67
2018-10-09T08:27:13.865Z,12.72
2018-10-09T08:28:13.875Z,12.72
2018-10-09T08:30:06.787Z,12.67
2018-10-09T08:31:06.797Z,12.70
2018-10-09T08:32:59.705Z,12.90
2018-10-09T08:33:59.713Z,13.03
2018-10-09T08:35:52.615Z,13.00
2018-10-09T08:36:52.631Z,13.05
2018-10-09T08:38:45.544Z,13.15
2018-10-09T08:39:45.557Z,13.28
2018-10-09T08:41:38.466Z,13.42
2018-10-09T08:42:38.488Z,13.54
2018-10-09T08:44:31.376Z,13.69
2018-10-09T08:45:31.414Z,13.67
2018-10-09T08:47:24.309Z,13.66
2018-10-09T08:48:24.315Z,13.60
2018-10-09T08:50:17.218Z,13.57
2018-10-09T08:51:17.234Z,13.62
2018-10-09T08:53:10.144Z,13.63
2018-10-09T08:54:10.152Z,13.66
2018-10-09T08:56:03.056Z,13.66
2018-10-09T08:57:03.076Z,13.69
2018-10-09T08:58:55.991Z,13.57
2018-10-09T08:59:55.992Z,13.71
2018-10-09T09:01:48.905Z,13.67
2018-10-09T09:02:48.912Z,13.77
2018-10-09T09:04:41.814Z,13.73
2018-10-09T09:05:41.831Z,13.71
2018-10-09T09:07:34.743Z,13.73
2018-10-09T09:08:34.751Z,13.82
2018-10-09T09:10:27.654Z,13.82
2018-10-09T09:11:27.672Z,13.77
2018-10-09T09:13:20.625Z,13.81
2018-10-09T09:14:20.631Z,13.89
2018-10-09T09:16:13.533Z,13.71
2018-10-09T09:17:13.549Z,13.78
2018-10-09T09:19:06.462Z,13.82
2018-10-09T09:20:06.472Z,13.96
2018-10-09T09:21:59.381Z,13.92
2018-10-09T09:22:59.390Z,13.84
2018-10-09T09:24:52.293Z,13.95
2018-10-09T09:25:52.310Z,13.95
2018-10-09T09:27:45.338Z,13.99
2018-10-09T09:28:45.227Z,13.95
2018-10-09T09:30:38.138Z,14.07
2018-10-09T09:31:38.148Z,14.02
2018-10-09T09:33:31.059Z,14.07
2018-10-09T09:34:31.069Z,14.17
2018-10-09T09:36:23.979Z,14.24
2018-10-09T09:37:23.990Z,14.18
2018-10-09T09:39:16.970Z,14.27
2018-10-09T09:40:16.911Z,14.20
2018-10-09T09:42:09.825Z,14.42
2018-10-09T09:43:09.838Z,14.40
2018-10-09T09:45:02.734Z,14.45
2018-10-09T09:46:02.794Z,14.58
2018-10-09T09:47:55.665Z,14.65
2018-10-09T09:48:55.672Z,14.62
2018-10-09T09:50:48.574Z,14.78
2018-10-09T09:51:48.590Z,14.92
2018-10-09T09:53:41.503Z,14.91
2018-10-09T09:54:41.532Z,14.99
2018-10-09T09:56:34.420Z,15.19
2018-10-09T09:57:34.436Z,15.21
2018-10-09T09:59:27.350Z,15.38
2018-10-09T10:00:27.360Z,15.43
2018-10-09T10:02:20.270Z,15.50
2018-10-09T10:03:20.281Z,15.56
2018-10-09T10:05:13.190Z,15.71
2018-10-09T10:06:13.202Z,15.60
2018-10-09T10:08:06.123Z,15.59
2018-10-09T10:09:06.171Z,15.64
2018-10-09T10:10:59.036Z,15.74
2018-10-09T10:11:59.057Z,15.68
2018-10-09T10:13:51.971Z,15.74
2018-10-09T10:14:51.980Z,15.78
2018-10-09T10:16:44.884Z,15.87
2018-10-09T10:17:44.902Z,15.96
2018-10-09T10:19:37.819Z,16.07
2018-10-09T10:20:37.828Z,16.17
2018-10-09T10:22:30.744Z,16.38
2018-10-09T10:23:30.753Z,16.38
2018-10-09T10:25:23.659Z,16.56
2018-10-09T10:26:23.710Z,16.53
2018-10-09T10:28:16.598Z,16.76
2018-10-09T10:29:16.738Z,16.75
2018-10-09T10:31:09.509Z,16.85
2018-10-09T10:32:09.527Z,16.83
2018-10-09T10:34:02.443Z,17.03
2018-10-09T10:35:02.455Z,16.97
2018-10-09T10:36:55.361Z,16.97
2018-10-09T10:37:55.380Z,17.04
2018-10-09T10:39:48.295Z,17.25
2018-10-09T10:40:48.307Z,17.19
2018-10-09T10:42:41.213Z,17.12
2018-10-09T10:43:41.232Z,17.22
2018-10-09T10:45:35.362Z,17.31
2018-10-09T10:46:35.374Z,17.30
2018-10-09T10:48:28.293Z,17.48
2018-10-09T10:49:28.307Z,17.56
2018-10-09T10:51:21.209Z,17.81
2018-10-09T10:52:21.230Z,17.87
2018-10-09T10:54:14.147Z,17.99
2018-10-09T10:55:14.158Z,18.10
2018-10-09T10:57:07.066Z,18.27
2018-10-09T10:58:07.089Z,18.30
2018-10-09T11:00:00.004Z,18.29
2018-10-09T11:01:00.016Z,18.45
2018-10-09T11:02:52.928Z,18.63
2018-10-09T11:03:52.946Z,18.78
2018-10-09T11:05:45.863Z,18.84
2018-10-09T11:06:45.876Z,18.98
2018-10-09T11:08:38.795Z,18.94
2018-10-09T11:09:38.807Z,18.78
2018-10-09T11:11:31.717Z,18.95
2018-10-09T11:12:31.738Z,19.02
2018-10-09T11:14:24.657Z,18.81
2018-10-09T11:15:24.667Z,18.84
2018-10-09T11:17:17.579Z,19.00
2018-10-09T11:18:17.603Z,18.94
2018-10-09T11:20:10.525Z,18.98
2018-10-09T11:21:10.585Z,19.02
2018-10-09T11:23:03.447Z,19.13
2018-10-09T11:24:03.469Z,19.16
2018-10-09T11:25:56.388Z,19.28
2018-10-09T11:26:56.398Z,19.29
2018-10-09T11:28:49.313Z,19.36
2018-10-09T11:29:49.330Z,19.46
2018-10-09T11:31:42.239Z,19.46
2018-10-09T11:32:42.260Z,19.51
2018-10-09T11:34:35.214Z,19.55
2018-10-09T11:35:35.191Z,19.73
2018-10-09T11:39:01.108Z,19.96
2018-10-09T11:40:00.461Z,20.14
2018-10-09T11:41:53.456Z,20.16
2018-10-09T11:42:53.481Z,20.24
2018-10-09T11:44:46.318Z,20.28
2018-10-09T11:45:46.332Z,20.29
2018-10-09T11:47:39.251Z,20.38
2018-10-09T11:48:39.272Z,20.35
2018-10-09T11:50:32.212Z,20.38
2018-10-09T11:51:32.205Z,20.50
2018-10-09T11:53:25.224Z,20.42
2018-10-09T11:54:25.144Z,20.17
2018-10-09T11:56:18.063Z,20.24
2018-10-09T11:57:18.076Z,20.32
2018-10-09T11:59:11.045Z,20.36
2018-10-09T12:00:11.009Z,20.38
2018-10-09T12:02:03.925Z,20.39
2018-10-09T12:03:03.948Z,20.36
2018-10-09T12:04:56.888Z,20.41
2018-10-09T12:05:56.887Z,20.38
2018-10-09T12:07:49.803Z,20.28
2018-10-09T12:08:50.069Z,20.20
2018-10-09T12:10:42.747Z,20.28
2018-10-09T12:11:42.762Z,20.36
2018-10-09T12:13:35.677Z,20.48
2018-10-09T12:14:35.696Z,20.41
2018-10-09T12:16:28.616Z,20.29
2018-10-09T12:17:28.633Z,20.38
2018-10-09T12:19:21.557Z,20.48
2018-10-09T12:20:21.569Z,20.54
2018-10-09T12:22:14.488Z,20.64
2018-10-09T12:23:14.509Z,20.72
2018-10-09T12:25:07.432Z,20.72
2018-10-09T12:26:07.448Z,20.57
2018-10-09T12:28:00.361Z,20.59
2018-10-09T12:29:00.383Z,20.57
2018-10-09T12:30:53.304Z,20.58
2018-10-09T12:31:53.321Z,20.51
2018-10-09T12:33:46.233Z,20.58
2018-10-09T12:34:46.262Z,20.50
2018-10-09T12:36:39.177Z,20.47
2018-10-09T12:37:39.191Z,20.57
2018-10-09T12:39:32.114Z,20.57
2018-10-09T12:40:32.129Z,20.58
2018-10-09T12:42:25.042Z,20.61
2018-10-09T12:43:25.060Z,20.52
2018-10-09T12:45:17.989Z,20.42
2018-10-09T12:46:17.998Z,20.38
2018-10-09T12:48:10.909Z,20.31
2018-10-09T12:49:10.934Z,20.28
2018-10-09T12:51:03.853Z,20.16
2018-10-09T12:52:03.866Z,20.11
2018-10-09T12:53:56.780Z,20.01
2018-10-09T12:54:56.800Z,20.02
2018-10-09T12:56:49.728Z,19.96
2018-10-09T12:57:49.736Z,19.91
2018-10-09T12:59:42.658Z,19.80
2018-10-09T13:00:42.670Z,19.84
2018-10-09T13:02:35.583Z,19.80
2018-10-09T13:03:35.604Z,19.84
2018-10-09T13:05:28.625Z,19.68
2018-10-09T13:06:28.537Z,19.84
2018-10-09T13:08:22.920Z,19.69
2018-10-09T13:09:21.523Z,19.74
2018-10-09T13:11:14.415Z,19.74
2018-10-09T13:12:14.431Z,19.69
2018-10-09T13:14:07.342Z,19.69
2018-10-09T13:15:07.370Z,19.66
2018-10-09T13:17:00.854Z,19.73
2018-10-09T13:18:00.301Z,19.68
2018-10-09T13:19:53.225Z,19.69
2018-10-09T13:20:53.367Z,19.59
2018-10-09T13:22:46.178Z,19.71
2018-10-09T13:23:46.167Z,19.68
2018-10-09T13:25:39.085Z,19.71
2018-10-09T13:26:39.098Z,19.76
2018-10-09T13:28:32.015Z,19.71
2018-10-09T13:29:32.036Z,19.73
2018-10-09T13:31:24.959Z,19.76
2018-10-09T13:32:24.971Z,19.76
2018-10-09T13:34:17.891Z,19.71
2018-10-09T13:35:17.900Z,19.69
2018-10-09T13:37:10.988Z,19.68
2018-10-09T13:38:11.029Z,19.68
2018-10-09T13:40:03.934Z,19.68
2018-10-09T13:41:03.977Z,19.76
2018-10-09T13:42:56.844Z,19.92
2018-10-09T13:43:56.877Z,19.92
2018-10-09T13:45:49.789Z,20.02
2018-10-09T13:46:49.796Z,20.01
2018-10-09T13:48:42.711Z,19.95
2018-10-09T13:49:42.726Z,19.92
2018-10-09T13:51:35.648Z,19.95
2018-10-09T13:52:35.660Z,19.94
2018-10-09T13:54:28.572Z,20.05
2018-10-09T13:55:28.595Z,20.08
2018-10-09T13:57:21.609Z,20.14
2018-10-09T13:58:21.526Z,20.03
2018-10-09T14:00:14.473Z,20.23
2018-10-09T14:01:14.461Z,20.16
2018-10-09T14:03:07.444Z,20.26
2018-10-09T14:04:07.392Z,20.14
2018-10-09T14:06:00.530Z,20.26
2018-10-09T14:07:00.539Z,20.31
2018-10-09T14:08:53.448Z,20.29
2018-10-09T14:09:53.471Z,20.29
2018-10-09T14:11:46.392Z,20.39
2018-10-09T14:12:46.404Z,20.42
2018-10-09T14:14:39.321Z,20.51
2018-10-09T14:15:39.334Z,20.47
2018-10-09T14:17:32.263Z,20.43
2018-10-09T14:18:32.268Z,20.41
2018-10-09T14:20:25.194Z,20.39
2018-10-09T14:21:25.203Z,20.42
2018-10-09T14:23:18.217Z,20.39
2018-10-09T14:24:18.135Z,20.39
2018-10-09T14:26:11.060Z,20.42
2018-10-09T14:27:11.070Z,20.39
2018-10-09T14:29:03.979Z,20.38
2018-10-09T14:30:04.000Z,20.47
2018-10-09T14:31:56.921Z,20.43
2018-10-09T14:32:56.936Z,20.47
2018-10-09T14:34:49.879Z,20.41
2018-10-09T14:35:49.869Z,20.48
2018-10-09T14:37:42.789Z,20.48
2018-10-09T14:38:42.802Z,20.41
2018-10-09T14:40:35.755Z,20.39
2018-10-09T14:41:35.739Z,20.50
2018-10-09T14:43:28.656Z,20.55
2018-10-09T14:44:28.673Z,20.61
2018-10-09T14:46:21.587Z,20.57
2018-10-09T14:47:21.605Z,20.55
2018-10-09T14:49:14.533Z,20.55
2018-10-09T14:50:14.554Z,20.58
2018-10-09T14:52:07.474Z,20.59
2018-10-09T14:53:07.485Z,20.59
2018-10-09T14:55:00.734Z,20.59
2018-10-09T14:56:00.421Z,20.64
2018-10-09T14:57:53.367Z,20.57
2018-10-09T14:58:53.357Z,20.57
2018-10-09T15:00:46.269Z,20.66
2018-10-09T15:01:46.288Z,20.73
2018-10-09T15:03:39.211Z,20.70
2018-10-09T15:04:39.225Z,20.73
2018-10-09T15:06:32.145Z,20.67
2018-10-09T15:07:32.158Z,20.72
2018-10-09T15:09:25.083Z,20.72
2018-10-09T15:10:25.092Z,20.72
2018-10-09T15:12:18.015Z,20.73
2018-10-09T15:13:18.028Z,20.70
2018-10-09T15:15:10.962Z,20.70
2018-10-09T15:16:10.986Z,20.70
2018-10-09T15:18:03.903Z,20.61
2018-10-09T15:19:03.918Z,20.69
2018-10-09T15:20:56.828Z,20.58
2018-10-09T15:21:56.852Z,20.59
2018-10-09T15:23:49.777Z,20.58
2018-10-09T15:24:49.818Z,20.61
2018-10-09T15:26:42.710Z,20.62
2018-10-09T15:27:42.728Z,20.64
2018-10-09T15:29:35.636Z,20.55
2018-10-09T15:30:35.850Z,20.59
2018-10-09T15:32:28.590Z,20.57
2018-10-09T15:33:28.605Z,20.55
2018-10-09T15:35:21.576Z,20.47
2018-10-09T15:36:21.527Z,20.47
2018-10-09T15:38:14.451Z,20.41
2018-10-09T15:39:14.464Z,20.41
2018-10-09T15:41:07.435Z,20.35
2018-10-09T15:42:07.394Z,20.38
2018-10-09T15:44:00.316Z,20.29
2018-10-09T15:45:00.328Z,20.32
2018-10-09T15:46:53.246Z,20.29
2018-10-09T15:47:53.263Z,20.28
2018-10-09T15:49:46.169Z,20.28
2018-10-09T15:50:46.191Z,20.32
2018-10-09T15:52:39.136Z,20.21
2018-10-09T15:53:39.128Z,20.28
2018-10-09T15:55:32.065Z,20.11
2018-10-09T15:56:32.125Z,20.11
2018-10-09T15:58:25.028Z,20.10
2018-10-09T15:59:25.015Z,20.14
2018-10-09T16:01:17.908Z,19.99
2018-10-09T16:02:17.930Z,20.05
2018-10-09T16:04:10.892Z,19.95
2018-10-09T16:05:10.924Z,19.94
2018-10-09T16:07:03.791Z,19.83
2018-10-09T16:08:03.806Z,19.83
2018-10-09T16:09:56.722Z,19.71
2018-10-09T16:10:56.759Z,19.69
2018-10-09T16:12:49.667Z,19.56
2018-10-09T16:13:49.675Z,19.68
2018-10-09T16:15:42.588Z,19.54
2018-10-09T16:16:42.610Z,19.47
2018-10-09T16:18:35.532Z,19.40
2018-10-09T16:19:35.543Z,19.47
2018-10-09T16:21:28.456Z,19.36
2018-10-09T16:22:28.474Z,19.26
2018-10-09T16:24:21.393Z,19.26
2018-10-09T16:25:21.410Z,19.22
2018-10-09T16:27:14.333Z,19.04
2018-10-09T16:28:14.338Z,18.94
2018-10-09T16:30:07.250Z,18.98
2018-10-09T16:31:07.267Z,18.85
2018-10-09T16:33:00.726Z,18.85
2018-10-09T16:34:00.198Z,18.70
2018-10-09T16:35:53.108Z,18.62
2018-10-09T16:36:53.129Z,18.69
2018-10-09T16:38:46.048Z,18.50
2018-10-09T16:39:46.063Z,18.39
2018-10-09T16:41:38.969Z,18.42
2018-10-09T16:42:38.989Z,18.23
2018-10-09T16:44:31.910Z,18.29
2018-10-09T16:45:31.925Z,18.02
2018-10-09T16:47:24.837Z,18.10
2018-10-09T16:48:24.854Z,17.97
2018-10-09T16:50:17.800Z,17.97
2018-10-09T16:51:17.809Z,17.95
2018-10-09T16:53:10.747Z,17.78
2018-10-09T16:54:10.737Z,17.72
2018-10-09T16:56:03.651Z,17.77
2018-10-09T16:57:03.668Z,17.68
2018-10-09T16:58:56.596Z,17.54
2018-10-09T16:59:56.629Z,17.44
2018-10-09T17:01:49.514Z,17.48
2018-10-09T17:02:49.535Z,17.48
2018-10-09T17:04:42.454Z,17.31
2018-10-09T17:05:42.464Z,17.19
2018-10-09T17:07:35.376Z,17.15
2018-10-09T17:08:35.397Z,17.16
2018-10-09T17:10:28.312Z,16.93
2018-10-09T17:11:28.394Z,16.98
2018-10-09T17:13:21.241Z,16.98
2018-10-09T17:14:21.252Z,16.93
2018-10-09T17:16:14.167Z,16.86
2018-10-09T17:17:14.181Z,16.82
2018-10-09T17:19:07.108Z,16.61
2018-10-09T17:20:07.106Z,16.75
2018-10-09T17:22:00.014Z,16.57
2018-10-09T17:23:00.039Z,16.53
2018-10-09T17:24:52.972Z,16.49
2018-10-09T17:25:52.971Z,16.53
2018-10-09T17:27:45.903Z,16.33
2018-10-09T17:28:45.900Z,16.35
2018-10-09T17:30:38.817Z,16.25
2018-10-09T17:31:38.829Z,16.15
2018-10-09T17:33:31.787Z,16.20
2018-10-09T17:34:31.756Z,16.11
2018-10-09T17:36:24.664Z,16.09
2018-10-09T17:37:24.682Z,16.11
2018-10-09T17:39:17.698Z,16.02
2018-10-09T17:40:17.613Z,16.01
2018-10-09T17:42:10.541Z,16.00
2018-10-09T17:43:10.543Z,15.89
2018-10-09T17:45:03.498Z,15.87
2018-10-09T17:46:03.486Z,15.82
2018-10-09T17:47:56.418Z,15.76
2018-10-09T17:48:56.397Z,15.83
2018-10-09T17:50:49.379Z,15.78
2018-10-09T17:51:49.330Z,15.65
2018-10-09T17:53:42.283Z,15.60
2018-10-09T17:54:42.251Z,15.59
2018-10-09T17:56:35.158Z,15.64
2018-10-09T17:57:35.175Z,15.57
2018-10-09T17:59:28.091Z,15.56
2018-10-09T18:00:28.102Z,15.44
2018-10-09T18:02:21.012Z,15.53
2018-10-09T18:03:21.128Z,15.56
2018-10-09T18:05:14.016Z,15.54
2018-10-09T18:06:13.953Z,15.53
2018-10-09T18:08:06.871Z,15.51
2018-10-09T18:09:06.910Z,15.39
2018-10-09T18:10:59.805Z,15.47
2018-10-09T18:11:59.818Z,15.38
2018-10-09T18:13:52.735Z,15.38
2018-10-09T18:14:52.881Z,15.35
2018-10-09T18:16:45.651Z,15.32
2018-10-09T18:17:45.670Z,15.20
2018-10-09T18:19:38.583Z,15.10
2018-10-09T18:20:38.593Z,15.21
2018-10-09T18:22:31.507Z,15.07
2018-10-09T18:23:31.550Z,15.10
2018-10-09T18:25:24.459Z,15.06
2018-10-09T18:26:24.441Z,15.02
2018-10-09T18:28:17.352Z,14.92
2018-10-09T18:29:17.369Z,14.98
2018-10-09T18:31:10.284Z,14.96
2018-10-09T18:32:10.292Z,14.94
2018-10-09T18:34:03.209Z,14.81
2018-10-09T18:35:03.218Z,14.83
2018-10-09T18:36:56.123Z,14.78
2018-10-09T18:37:56.147Z,14.83
2018-10-09T18:39:49.054Z,14.78
2018-10-09T18:40:49.220Z,14.72
2018-10-09T18:42:41.973Z,14.75
2018-10-09T18:43:41.994Z,14.69
2018-10-09T18:45:34.905Z,14.72
2018-10-09T18:46:34.915Z,14.64
2018-10-09T18:48:27.826Z,14.61
2018-10-09T18:49:27.842Z,14.65